createdAt,value
2022-11-16T06:48:18.531Z,9.99
2022-11-16T08:06:21.779Z,10.99
2022-11-16T08:06:54.811Z,11.03
2022-11-16T08:07:54.806Z,11.06
2022-11-16T08:08:58.353Z,11.09
2022-11-16T08:09:54.928Z,11.11
2022-11-16T08:10:55.554Z,11.24
2022-11-16T08:11:55.021Z,11.31
2022-11-16T08:12:55.041Z,11.31
2022-11-16T08:13:55.092Z,11.46
2022-11-16T08:14:55.166Z,11.49
2022-11-16T08:15:56.040Z,11.57
2022-11-16T08:16:55.256Z,11.62
2022-11-16T08:17:55.274Z,11.59
2022-11-16T08:18:55.324Z,11.72
2022-11-16T08:19:55.372Z,11.86
2022-11-16T08:20:55.416Z,11.94
2022-11-16T08:21:55.491Z,12.13
2022-11-16T08:22:55.510Z,12.23
2022-11-16T08:23:58.731Z,12.41
2022-11-16T08:24:55.606Z,12.37
2022-11-16T08:25:56.533Z,12.38
2022-11-16T08:26:55.744Z,12.38
2022-11-16T08:27:55.752Z,12.52
2022-11-16T08:28:55.804Z,12.46
2022-11-16T08:29:55.872Z,12.74
2022-11-16T08:30:55.898Z,12.79
2022-11-16T08:31:55.984Z,12.85
2022-11-16T08:32:56.010Z,12.92
2022-11-16T08:33:56.613Z,12.96
2022-11-16T08:34:56.087Z,13.00
2022-11-16T08:35:57.037Z,12.99
2022-11-16T08:36:56.212Z,12.92
2022-11-16T08:37:56.265Z,12.93
2022-11-16T08:38:56.286Z,13.14
2022-11-16T08:39:57.036Z,13.09
2022-11-16T08:40:57.039Z,13.00
2022-11-16T08:41:56.457Z,12.89
2022-11-16T08:42:56.478Z,12.97
2022-11-16T08:43:56.559Z,12.95
2022-11-16T08:44:56.582Z,12.96
2022-11-16T08:45:57.549Z,12.79
2022-11-16T08:46:56.693Z,12.79
2022-11-16T08:48:03.501Z,12.57
2022-11-16T08:48:56.802Z,12.48
2022-11-16T08:49:58.732Z,12.49
2022-11-16T08:51:16.561Z,12.48
2022-11-16T08:51:57.567Z,12.48
2022-11-16T08:52:57.772Z,12.38
2022-11-16T08:53:57.056Z,12.41
2022-11-16T08:54:57.075Z,12.27
2022-11-16T08:55:58.044Z,12.23
2022-11-16T08:56:57.168Z,12.21
2022-11-16T08:57:58.048Z,12.30
2022-11-16T08:58:59.128Z,12.24
2022-11-16T08:59:57.317Z,12.27
2022-11-16T09:00:57.358Z,12.21
2022-11-16T09:01:57.480Z,12.24
2022-11-16T09:02:57.451Z,12.29
2022-11-16T09:03:57.571Z,12.29
2022-11-16T09:04:57.547Z,12.21
2022-11-16T09:05:57.593Z,12.26
2022-11-16T09:06:57.718Z,12.34
2022-11-16T09:07:57.684Z,12.33
2022-11-16T09:08:57.736Z,12.26
2022-11-16T09:09:58.546Z,12.33
2022-11-16T09:10:58.550Z,12.46
2022-11-16T09:11:57.908Z,12.41
2022-11-16T09:12:57.963Z,12.42
2022-11-16T09:13:57.971Z,12.46
2022-11-16T09:14:58.019Z,12.49
2022-11-16T09:15:58.082Z,12.48
2022-11-16T09:16:58.119Z,12.51
2022-11-16T09:17:58.204Z,12.45
2022-11-16T09:18:58.211Z,12.46
2022-11-16T09:19:58.281Z,12.49
2022-11-16T09:20:58.313Z,12.44
2022-11-16T09:21:59.057Z,12.54
2022-11-16T09:22:58.452Z,12.63
2022-11-16T09:23:58.473Z,12.63
2022-11-16T09:24:58.508Z,12.71
2022-11-16T09:25:59.048Z,12.79
2022-11-16T09:26:58.624Z,12.71
2022-11-16T09:27:59.564Z,12.85
2022-11-16T09:28:58.738Z,12.99
2022-11-16T09:29:58.774Z,13.00
2022-11-16T09:30:59.565Z,13.15
2022-11-16T09:31:58.843Z,13.21
2022-11-16T09:32:58.897Z,13.27
2022-11-16T09:33:59.229Z,13.21
2022-11-16T09:34:59.568Z,13.30
2022-11-16T09:35:59.556Z,13.36
2022-11-16T09:36:59.092Z,13.44
2022-11-16T09:37:59.132Z,13.43
2022-11-16T09:39:30.171Z,13.44
2022-11-16T09:39:59.240Z,13.56
2022-11-16T09:41:00.075Z,13.52
2022-11-16T09:41:59.341Z,13.54
2022-11-16T09:43:00.062Z,13.25
2022-11-16T09:43:59.470Z,13.17
2022-11-16T09:45:00.068Z,13.20
2022-11-16T09:46:00.066Z,13.12
2022-11-16T09:47:00.559Z,13.07
2022-11-16T09:47:59.627Z,13.20
2022-11-16T09:48:59.696Z,13.15
2022-11-16T09:50:03.606Z,13.20
2022-11-16T09:50:59.762Z,13.07
2022-11-16T09:52:00.561Z,13.21
2022-11-16T09:52:59.861Z,13.18
2022-11-16T09:53:59.937Z,13.04
2022-11-16T09:54:59.963Z,13.00
2022-11-16T09:56:00.577Z,13.11
2022-11-16T09:57:00.109Z,13.11
2022-11-16T09:58:00.135Z,13.24
2022-11-16T09:59:00.158Z,13.21
2022-11-16T10:00:00.200Z,13.17
2022-11-16T10:01:01.128Z,13.07
2022-11-16T10:02:00.321Z,13.12
2022-11-16T10:03:00.358Z,13.14
2022-11-16T10:04:00.404Z,13.06
2022-11-16T10:05:00.466Z,13.03
2022-11-16T10:06:00.544Z,13.03
2022-11-16T10:07:00.579Z,13.07
2022-11-16T10:08:00.610Z,13.12
2022-11-16T10:09:00.639Z,13.17
2022-11-16T10:10:00.708Z,13.18
2022-11-16T10:11:00.771Z,13.18
2022-11-16T10:12:00.787Z,13.21
2022-11-16T10:13:00.838Z,13.11
2022-11-16T10:14:04.384Z,13.07
2022-11-16T10:15:00.944Z,13.18
2022-11-16T10:16:01.032Z,13.20
2022-11-16T10:17:01.028Z,13.30
2022-11-16T10:18:01.081Z,13.32
2022-11-16T10:19:01.127Z,13.29
2022-11-16T10:20:01.227Z,13.36
2022-11-16T10:21:01.248Z,13.38
2022-11-16T10:22:01.270Z,13.46
2022-11-16T10:23:01.324Z,13.47
2022-11-16T10:24:01.366Z,13.56
2022-11-16T10:25:01.420Z,13.52
2022-11-16T10:26:01.492Z,13.58
2022-11-16T10:27:01.518Z,13.54
2022-11-16T10:28:02.071Z,13.69
2022-11-16T10:29:01.611Z,13.69
2022-11-16T10:30:01.656Z,13.67
2022-11-16T10:31:01.745Z,13.69
2022-11-16T10:32:01.757Z,13.69
2022-11-16T10:33:02.847Z,13.77
2022-11-16T10:34:01.850Z,13.67
2022-11-16T10:35:02.578Z,13.77
2022-11-16T10:36:01.978Z,13.77
2022-11-16T10:37:02.577Z,13.59
2022-11-16T10:38:02.077Z,13.47
2022-11-16T10:39:02.097Z,13.54
2022-11-16T10:40:02.839Z,13.59
2022-11-16T10:41:02.229Z,13.56
2022-11-16T10:42:07.312Z,13.71
2022-11-16T10:43:02.313Z,13.67
2022-11-16T10:44:02.337Z,13.69
2022-11-16T10:45:02.390Z,13.62
2022-11-16T10:46:02.439Z,13.65
2022-11-16T10:47:02.484Z,13.74
2022-11-16T10:48:02.572Z,13.73
2022-11-16T10:49:03.590Z,13.94
2022-11-16T10:50:02.649Z,14.01
2022-11-16T10:51:03.580Z,14.19
2022-11-16T10:52:02.731Z,14.35
2022-11-16T10:53:02.815Z,14.32
2022-11-16T10:54:02.830Z,14.27
2022-11-16T10:55:02.876Z,14.32
2022-11-16T10:56:02.968Z,14.44
2022-11-16T10:57:03.003Z,14.43
2022-11-16T10:58:03.060Z,14.37
2022-11-16T10:59:03.072Z,14.32
2022-11-16T11:00:03.129Z,14.42
2022-11-16T11:01:03.206Z,14.37
2022-11-16T11:02:03.227Z,14.39
2022-11-16T11:03:03.311Z,14.42
2022-11-16T11:04:03.319Z,14.35
2022-11-16T11:05:03.368Z,14.38
2022-11-16T11:06:03.421Z,14.29
2022-11-16T11:07:03.577Z,14.31
2022-11-16T11:08:03.542Z,14.35
2022-11-16T11:09:03.567Z,14.52
2022-11-16T11:10:04.580Z,14.60
2022-11-16T11:11:03.669Z,14.65
2022-11-16T11:12:03.722Z,14.80
2022-11-16T11:13:03.833Z,14.94
2022-11-16T11:14:03.812Z,14.90
2022-11-16T11:15:03.867Z,15.06
2022-11-16T11:16:04.589Z,15.05
2022-11-16T11:17:03.972Z,15.01
2022-11-16T11:18:04.060Z,15.06
2022-11-16T11:19:04.067Z,14.93
2022-11-16T11:20:05.091Z,14.93
2022-11-16T11:21:04.179Z,14.87
2022-11-16T11:22:04.207Z,14.83
2022-11-16T11:23:04.286Z,14.67
2022-11-16T11:24:29.729Z,14.71
2022-11-16T11:25:04.375Z,14.62
2022-11-16T11:26:05.090Z,14.68
2022-11-16T11:27:04.466Z,14.69
2022-11-16T11:28:04.570Z,14.54
2022-11-16T11:29:04.567Z,14.62
2022-11-16T11:30:05.589Z,14.50
2022-11-16T11:31:04.654Z,14.44
2022-11-16T11:32:04.704Z,14.37
2022-11-16T11:33:04.783Z,14.35
2022-11-16T11:34:04.809Z,14.34
2022-11-16T11:35:04.856Z,14.29
2022-11-16T11:36:04.919Z,14.20
2022-11-16T11:37:05.595Z,14.21
2022-11-16T11:38:08.070Z,14.19
2022-11-16T11:39:05.116Z,14.17
2022-11-16T11:40:05.101Z,14.19
2022-11-16T11:41:06.098Z,14.19
2022-11-16T11:42:05.201Z,14.14
2022-11-16T11:43:05.269Z,14.21
2022-11-16T11:44:05.301Z,14.20
2022-11-16T11:45:06.103Z,14.28
2022-11-16T11:46:05.428Z,14.42
2022-11-16T11:48:05.497Z,14.46
2022-11-16T11:49:05.547Z,14.52
2022-11-16T11:50:05.650Z,14.52
2022-11-16T11:51:05.677Z,14.46
2022-11-16T11:52:05.706Z,14.39
2022-11-16T11:53:05.743Z,14.35
2022-11-16T11:54:05.791Z,14.37
2022-11-16T11:55:05.842Z,14.25
2022-11-16T11:56:05.932Z,14.35
2022-11-16T11:57:06.613Z,14.35
2022-11-16T11:58:06.018Z,14.35
2022-11-16T11:59:06.060Z,14.38
2022-11-16T12:00:06.130Z,14.42
2022-11-16T12:01:06.169Z,14.42
2022-11-16T12:02:06.189Z,14.46
2022-11-16T12:03:07.181Z,14.43
2022-11-16T12:04:06.289Z,14.38
2022-11-16T12:05:06.350Z,14.46
2022-11-16T12:06:06.435Z,14.46
2022-11-16T12:07:06.519Z,14.50
2022-11-16T12:08:06.497Z,14.50
2022-11-16T12:09:06.537Z,14.53
2022-11-16T12:10:07.112Z,14.49
2022-11-16T12:11:06.656Z,14.50
2022-11-16T12:12:09.274Z,14.46
2022-11-16T12:13:06.736Z,14.43
2022-11-16T12:14:06.786Z,14.38
2022-11-16T12:15:06.849Z,14.35
2022-11-16T12:16:06.894Z,14.39
2022-11-16T12:17:06.970Z,14.35
2022-11-16T12:18:06.986Z,14.28
2022-11-16T12:19:07.036Z,14.28
2022-11-16T12:20:07.084Z,14.25
2022-11-16T12:21:07.129Z,14.29
2022-11-16T12:22:07.241Z,14.21
2022-11-16T12:23:07.230Z,14.27
2022-11-16T12:24:07.284Z,14.21
2022-11-16T12:25:07.335Z,14.24
2022-11-16T12:26:07.386Z,14.17
2022-11-16T12:27:07.459Z,14.16
2022-11-16T12:28:08.105Z,14.04
2022-11-16T12:29:07.525Z,14.02
2022-11-16T12:30:07.575Z,14.04
2022-11-16T12:31:07.663Z,14.12
2022-11-16T12:32:07.684Z,14.12
2022-11-16T12:33:07.727Z,14.16
2022-11-16T12:34:08.627Z,14.25
2022-11-16T12:35:08.614Z,14.14
2022-11-16T12:36:07.901Z,14.07
2022-11-16T12:37:07.942Z,14.04
2022-11-16T12:38:07.973Z,13.96
2022-11-16T12:39:08.019Z,13.94
2022-11-16T12:40:08.097Z,13.99
2022-11-16T12:41:08.129Z,13.89
2022-11-16T12:42:08.171Z,13.88
2022-11-16T12:43:08.238Z,13.83
2022-11-16T12:44:08.267Z,13.84
2022-11-16T12:45:08.318Z,13.80
2022-11-16T12:46:08.393Z,13.80
2022-11-16T12:47:08.445Z,13.80
2022-11-16T12:48:08.463Z,13.61
2022-11-16T12:49:08.525Z,13.55
2022-11-16T12:50:08.567Z,13.58
2022-11-16T12:51:08.650Z,13.54
2022-11-16T12:52:08.666Z,13.56
2022-11-16T12:53:08.709Z,13.62
2022-11-16T12:54:08.765Z,13.59
2022-11-16T12:55:38.042Z,13.61
2022-11-16T12:56:08.894Z,13.63
2022-11-16T12:57:08.927Z,13.59
2022-11-16T12:58:08.948Z,13.56
2022-11-16T12:59:09.009Z,13.62
2022-11-16T13:00:09.062Z,13.71
2022-11-16T13:01:09.186Z,13.76
2022-11-16T13:02:09.146Z,13.76
2022-11-16T13:03:09.240Z,13.83
2022-11-16T13:04:09.277Z,13.71
2022-11-16T13:05:10.131Z,13.87
2022-11-16T13:06:09.336Z,13.80
2022-11-16T13:07:11.153Z,13.79
2022-11-16T13:08:09.476Z,13.70
2022-11-16T13:09:09.495Z,13.81
2022-11-16T13:10:10.127Z,13.79
2022-11-16T13:11:10.123Z,13.83
2022-11-16T13:12:09.635Z,13.80
2022-11-16T13:13:35.024Z,13.83
2022-11-16T13:14:09.730Z,13.81
2022-11-16T13:15:09.776Z,13.88
2022-11-16T13:16:10.635Z,13.83
2022-11-16T13:17:09.867Z,13.99
2022-11-16T13:18:09.945Z,13.95
2022-11-16T13:19:09.967Z,13.96
2022-11-16T13:20:14.508Z,13.94
2022-11-16T13:21:10.061Z,13.92
2022-11-16T13:22:10.168Z,14.01
2022-11-16T13:23:10.159Z,13.99
2022-11-16T13:24:10.219Z,14.04
2022-11-16T13:25:11.127Z,13.96
2022-11-16T13:26:11.131Z,14.09
2022-11-16T13:27:10.389Z,14.07
2022-11-16T13:28:10.410Z,14.16
2022-11-16T13:29:10.490Z,14.13
2022-11-16T13:30:11.130Z,14.10
2022-11-16T13:31:10.595Z,14.13
2022-11-16T13:32:10.598Z,14.14
2022-11-16T13:33:10.653Z,14.14
2022-11-16T13:34:10.759Z,14.01
2022-11-16T13:35:10.759Z,13.99
2022-11-16T13:36:10.818Z,13.83
2022-11-16T13:37:10.846Z,13.81
2022-11-16T13:38:10.891Z,13.71
2022-11-16T13:39:10.979Z,13.69
2022-11-16T13:40:11.642Z,13.70
2022-11-16T13:41:11.042Z,13.69
2022-11-16T13:42:11.632Z,13.55
2022-11-16T13:43:11.139Z,13.55
2022-11-16T13:44:11.210Z,13.49
2022-11-16T13:45:11.260Z,13.54
2022-11-16T13:46:22.427Z,13.55
2022-11-16T13:47:11.332Z,13.49
2022-11-16T13:48:11.379Z,13.52
2022-11-16T13:49:11.424Z,13.55
2022-11-16T13:50:11.558Z,13.54
2022-11-16T13:51:11.565Z,13.54
2022-11-16T13:52:23.151Z,13.61
2022-11-16T13:55:11.738Z,13.74
2022-11-16T13:56:11.771Z,13.92
2022-11-16T13:57:11.846Z,13.98
2022-11-16T13:58:11.869Z,13.99
2022-11-16T13:59:11.912Z,13.83
2022-11-16T14:00:12.636Z,13.81
2022-11-16T14:01:12.052Z,13.81
2022-11-16T14:02:12.084Z,13.88
2022-11-16T14:03:12.643Z,13.84
2022-11-16T14:04:12.179Z,13.87
2022-11-16T14:05:12.203Z,13.87
2022-11-16T14:06:12.252Z,13.94
2022-11-16T14:07:13.182Z,13.99
2022-11-16T14:08:12.382Z,14.14
2022-11-16T14:09:12.440Z,14.19
2022-11-16T14:10:12.469Z,14.14
2022-11-16T14:11:12.500Z,14.17
2022-11-16T14:12:12.571Z,14.21
2022-11-16T14:13:13.142Z,14.20
2022-11-16T14:14:12.902Z,14.20
2022-11-16T14:15:13.644Z,14.28
2022-11-16T14:16:12.776Z,14.20
2022-11-16T14:17:12.789Z,14.32
2022-11-16T14:18:12.844Z,14.20
2022-11-16T14:19:12.904Z,14.19
2022-11-16T14:20:17.103Z,13.96
2022-11-16T14:21:13.024Z,13.95
2022-11-16T14:22:13.062Z,13.88
2022-11-16T14:23:13.089Z,13.79
2022-11-16T14:24:13.132Z,13.84
2022-11-16T14:25:13.190Z,13.79
2022-11-16T14:26:13.272Z,13.76
2022-11-16T14:27:13.306Z,13.71
2022-11-16T14:28:14.145Z,13.67
2022-11-16T14:29:14.158Z,13.55
2022-11-16T14:30:13.422Z,13.59
2022-11-16T14:31:13.474Z,13.52
2022-11-16T14:32:13.550Z,13.52
2022-11-16T14:33:13.569Z,13.55
2022-11-16T14:34:13.651Z,13.56
2022-11-16T14:35:13.670Z,13.58
2022-11-16T14:36:13.714Z,13.52
2022-11-16T14:37:13.764Z,13.54
2022-11-16T14:38:13.878Z,13.47
2022-11-16T14:39:13.875Z,13.49
2022-11-16T14:40:13.912Z,13.46
2022-11-16T14:41:13.962Z,13.36
2022-11-16T14:42:14.006Z,13.36
2022-11-16T14:43:16.951Z,13.40
2022-11-16T14:44:14.150Z,13.41
2022-11-16T14:45:14.203Z,13.30
2022-11-16T14:46:14.199Z,13.29
2022-11-16T14:47:14.288Z,13.22
2022-11-16T14:48:14.321Z,13.18
2022-11-16T14:49:14.380Z,13.07
2022-11-16T14:50:14.393Z,13.20
2022-11-16T14:51:14.475Z,13.07
2022-11-16T14:52:14.494Z,13.07
2022-11-16T14:53:14.536Z,13.09
2022-11-16T14:54:14.583Z,13.02
2022-11-16T14:55:14.639Z,13.00
2022-11-16T14:56:14.701Z,12.96
2022-11-16T14:57:14.736Z,12.87
2022-11-16T14:58:14.776Z,12.79
2022-11-16T14:59:14.833Z,12.78
2022-11-16T15:00:14.906Z,12.64
2022-11-16T15:01:14.944Z,12.67
2022-11-16T15:02:14.965Z,12.60
2022-11-16T15:03:15.073Z,12.64
2022-11-16T15:04:15.063Z,12.62
2022-11-16T15:05:15.154Z,12.71
2022-11-16T15:06:15.166Z,12.64
2022-11-16T15:07:15.357Z,12.75
2022-11-16T15:08:15.251Z,12.64
2022-11-16T15:09:15.339Z,12.60
2022-11-16T15:10:15.351Z,12.64
2022-11-16T15:11:16.159Z,12.67
2022-11-16T15:12:15.447Z,12.67
2022-11-16T15:13:16.166Z,12.57
2022-11-16T15:14:15.573Z,12.52
2022-11-16T15:15:15.621Z,12.51
2022-11-16T15:16:15.651Z,12.56
2022-11-16T15:17:16.655Z,12.44
2022-11-16T15:18:15.739Z,12.38
2022-11-16T15:19:15.788Z,12.39
2022-11-16T15:20:15.881Z,12.23
2022-11-16T15:21:15.884Z,12.27
2022-11-16T15:22:15.931Z,12.23
2022-11-16T15:23:15.987Z,12.16
2022-11-16T15:24:29.799Z,12.15
2022-11-16T15:25:16.124Z,12.01
2022-11-16T15:26:16.164Z,11.97
2022-11-16T15:27:16.197Z,11.93
2022-11-16T15:28:16.227Z,11.90
2022-11-16T15:29:16.266Z,11.89
2022-11-16T15:30:17.164Z,11.85
2022-11-16T15:31:16.402Z,11.77
2022-11-16T15:32:16.407Z,11.74
2022-11-16T15:33:16.454Z,11.61
2022-11-16T15:34:16.537Z,11.52
2022-11-16T15:35:16.542Z,11.32
2022-11-16T15:36:16.598Z,11.27
2022-11-16T15:37:16.718Z,11.16
2022-11-16T15:38:16.695Z,11.07
2022-11-16T15:39:16.744Z,10.92
2022-11-16T15:40:17.661Z,10.94
2022-11-16T15:41:16.832Z,10.89
2022-11-16T15:42:16.910Z,10.73
2022-11-16T15:43:16.925Z,10.74
2022-11-16T15:44:17.351Z,10.68
2022-11-16T15:45:17.020Z,10.59
2022-11-16T15:46:17.665Z,10.74
2022-11-16T15:47:17.112Z,10.65
2022-11-16T15:48:17.180Z,10.59
2022-11-16T15:49:17.211Z,10.60
2022-11-16T15:50:17.301Z,10.60
2022-11-16T15:51:17.324Z,10.66
2022-11-16T15:52:18.171Z,10.58
2022-11-16T15:53:17.395Z,10.60
2022-11-16T15:54:17.461Z,10.58
2022-11-16T15:55:17.607Z,10.65
2022-11-16T15:56:17.538Z,10.63
2022-11-16T15:57:17.586Z,10.58
2022-11-16T15:58:17.634Z,10.51
2022-11-16T15:59:17.679Z,10.44
2022-11-16T16:00:17.756Z,10.37
2022-11-16T16:01:17.842Z,10.44
2022-11-16T16:02:17.846Z,10.33
2022-11-16T16:03:17.872Z,10.28
2022-11-16T16:04:17.910Z,10.28
2022-11-16T16:05:22.740Z,10.26
2022-11-16T16:06:18.017Z,10.15
2022-11-16T16:07:18.163Z,10.14
2022-11-16T16:08:18.138Z,10.15
2022-11-16T16:09:18.202Z,10.12
2022-11-16T16:10:18.201Z,10.10
2022-11-16T16:11:21.425Z,10.07
2022-11-16T16:12:18.282Z,10.07
2022-11-16T16:13:18.332Z,9.96
2022-11-16T16:14:18.409Z,10.01
2022-11-16T16:15:18.463Z,9.99
2022-11-16T16:16:18.472Z,9.93
2022-11-16T16:17:18.527Z,9.97
2022-11-16T16:18:18.581Z,10.01
2022-11-16T16:19:18.695Z,9.89
2022-11-16T16:20:18.691Z,9.97
2022-11-16T16:21:18.706Z,9.79
2022-11-16T16:22:18.767Z,9.83
2022-11-16T16:23:19.671Z,9.81
2022-11-16T16:24:18.850Z,9.76
2022-11-16T16:25:18.924Z,9.81
2022-11-16T16:26:18.955Z,9.73
2022-11-16T16:27:19.011Z,9.79
2022-11-16T16:28:19.037Z,9.76
2022-11-16T16:29:19.679Z,9.70
2022-11-16T16:30:19.122Z,9.76
2022-11-16T16:31:19.222Z,9.75
2022-11-16T16:32:19.215Z,9.75
2022-11-16T16:33:19.263Z,9.67
2022-11-16T16:34:19.308Z,9.63
2022-11-16T16:35:19.349Z,9.68
2022-11-16T16:36:19.418Z,9.66
2022-11-16T16:37:19.449Z,9.60
2022-11-16T16:38:19.513Z,9.58
2022-11-16T16:39:19.575Z,9.64
2022-11-16T16:40:19.581Z,9.53
2022-11-16T16:41:23.990Z,9.53
2022-11-16T16:42:19.672Z,9.46
2022-11-16T16:43:19.793Z,9.45
2022-11-16T16:44:19.767Z,9.52
2022-11-16T16:45:19.810Z,9.45
2022-11-16T16:46:19.871Z,9.48
2022-11-16T16:47:19.908Z,9.30
2022-11-16T16:48:20.018Z,9.32
2022-11-16T16:49:20.037Z,9.31
2022-11-16T16:50:20.048Z,9.32
2022-11-16T16:51:20.103Z,9.31
2022-11-16T16:52:20.151Z,9.30
2022-11-16T17:45:05.177Z,8.40
2022-11-16T17:46:04.056Z,8.42
2022-11-16T17:47:05.695Z,8.44
2022-11-16T17:48:04.144Z,8.44
2022-11-16T17:49:04.186Z,8.40
2022-11-16T17:50:04.273Z,8.36
2022-11-16T17:51:05.134Z,8.35
2022-11-16T17:52:05.145Z,8.36
2022-11-16T17:53:04.402Z,8.33
2022-11-16T17:54:04.418Z,8.28
2022-11-16T17:55:04.490Z,8.33
2022-11-16T17:56:05.271Z,8.33
2022-11-16T17:57:04.585Z,8.30
2022-11-16T17:58:04.589Z,8.26
2022-11-16T17:59:04.627Z,8.21
2022-11-16T18:00:04.849Z,8.29
2022-11-16T18:01:04.765Z,8.20
2022-11-16T18:02:04.764Z,8.20
2022-11-16T18:03:04.824Z,8.21
2022-11-16T18:04:04.896Z,8.26
2022-11-16T18:05:04.957Z,8.20
2022-11-16T18:06:05.642Z,8.21
2022-11-16T18:07:05.034Z,8.22
2022-11-16T18:08:05.034Z,8.21
2022-11-16T18:09:05.125Z,8.30
2022-11-16T18:10:05.195Z,8.25
2022-11-16T18:11:05.159Z,8.32
2022-11-16T18:12:05.201Z,8.30
2022-11-16T18:13:05.244Z,8.35
2022-11-16T18:14:05.291Z,8.36
2022-11-16T18:15:27.558Z,8.33
2022-11-16T18:16:05.383Z,8.40
2022-11-16T18:17:05.477Z,8.37
2022-11-16T18:18:05.511Z,8.33
2022-11-16T18:19:05.544Z,8.29
2022-11-16T18:20:05.635Z,8.39
2022-11-16T18:21:05.643Z,8.32
2022-11-16T18:22:05.650Z,8.44
2022-11-16T18:23:05.693Z,8.42
2022-11-16T18:24:05.749Z,8.44
2022-11-16T18:25:05.851Z,8.50
2022-11-16T18:26:05.855Z,8.53
2022-11-16T18:27:05.883Z,8.51
2022-11-16T18:28:05.978Z,8.54
2022-11-16T18:29:05.986Z,8.62
2022-11-16T18:30:06.015Z,8.55
2022-11-16T18:31:06.150Z,8.63
2022-11-16T18:32:06.214Z,8.58
2022-11-16T18:33:06.206Z,8.65
2022-11-16T18:34:06.201Z,8.60
2022-11-16T18:35:06.254Z,8.66
2022-11-16T18:36:06.294Z,8.72
2022-11-16T18:37:06.363Z,8.71
2022-11-16T18:38:06.381Z,8.63
2022-11-16T18:39:06.420Z,8.60
2022-11-16T18:40:06.473Z,8.63
2022-11-16T18:41:06.526Z,8.65
2022-11-16T18:42:06.576Z,8.63
2022-11-16T18:43:06.597Z,8.68
2022-11-16T18:44:06.687Z,8.62
2022-11-16T18:45:06.719Z,8.66
2022-11-16T18:46:06.745Z,8.69
2022-11-16T18:47:06.820Z,8.55
2022-11-16T18:48:06.827Z,8.55
2022-11-16T18:49:06.889Z,8.57
2022-11-16T18:50:06.928Z,8.54
2022-11-16T18:51:06.956Z,8.50
2022-11-16T18:52:07.040Z,8.54
2022-11-16T18:53:07.054Z,8.53
2022-11-16T18:54:07.099Z,8.58
2022-11-16T18:55:07.142Z,8.62
2022-11-16T18:56:08.140Z,8.65
2022-11-16T18:57:07.259Z,8.55
2022-11-16T18:58:22.759Z,8.65
2022-11-16T18:59:07.327Z,8.68
2022-11-16T19:00:07.371Z,8.65
2022-11-16T19:01:07.466Z,8.83
2022-11-16T19:02:07.477Z,8.72
2022-11-16T19:03:11.235Z,8.72
2022-11-16T19:04:07.577Z,8.72
2022-11-16T19:05:08.125Z,8.75
2022-11-16T19:06:07.635Z,8.76
2022-11-16T19:07:08.663Z,8.83
2022-11-16T19:08:07.730Z,8.86
2022-11-16T19:09:07.793Z,8.79
2022-11-16T19:10:07.815Z,8.76
2022-11-16T19:11:07.862Z,8.83
2022-11-16T19:12:07.923Z,8.81
2022-11-16T19:13:07.947Z,8.76
2022-11-16T19:14:08.007Z,8.81
2022-11-16T19:15:08.038Z,8.81
2022-11-16T19:16:08.085Z,8.88
2022-11-16T19:17:08.152Z,8.83
2022-11-16T19:18:21.439Z,8.91
2022-11-16T19:19:09.128Z,8.91
2022-11-16T19:20:08.291Z,8.91
2022-11-16T19:21:08.314Z,8.90
2022-11-16T19:22:08.351Z,8.90
2022-11-16T19:23:09.137Z,8.90
2022-11-16T19:24:08.442Z,8.91
2022-11-16T19:25:08.529Z,8.91
2022-11-16T19:26:09.136Z,8.91
2022-11-16T19:27:08.589Z,8.83
2022-11-16T19:28:09.126Z,8.84
2022-11-16T19:29:08.694Z,8.84
2022-11-16T19:30:08.713Z,8.83
2022-11-16T19:31:08.773Z,8.81
2022-11-16T19:32:08.809Z,8.90
2022-11-16T19:33:08.851Z,8.88
2022-11-16T19:34:08.927Z,9.02
2022-11-16T19:35:08.943Z,9.10
2022-11-16T19:36:09.631Z,9.25
2022-11-16T19:37:09.030Z,9.31
2022-11-16T19:38:09.076Z,9.52
2022-11-16T19:39:09.143Z,9.71
2022-11-16T19:40:09.171Z,9.79
2022-11-16T19:41:09.209Z,9.75
2022-11-16T19:42:09.285Z,9.81
2022-11-16T19:43:09.315Z,9.79
2022-11-16T19:44:09.351Z,9.79
2022-11-16T19:45:10.131Z,9.85
2022-11-16T19:46:09.467Z,9.81
2022-11-16T19:47:09.517Z,9.83
2022-11-16T19:48:10.131Z,9.79
2022-11-16T19:49:09.602Z,9.78
2022-11-16T19:50:09.628Z,9.71
2022-11-16T19:51:09.663Z,9.68
2022-11-16T19:52:10.632Z,9.58
2022-11-16T19:53:10.631Z,9.57
2022-11-16T19:54:09.825Z,9.58
2022-11-16T19:55:10.633Z,9.48
2022-11-16T20:53:26.911Z,8.93
2022-11-16T20:54:10.808Z,8.97
2022-11-16T20:55:10.844Z,8.91
2022-11-16T20:56:10.886Z,8.87
2022-11-16T20:57:10.968Z,8.84
2022-11-16T20:58:11.953Z,8.81
2022-11-16T20:59:11.020Z,8.84
2022-11-16T21:00:11.957Z,8.79
2022-11-16T21:01:11.163Z,8.78
2022-11-16T21:02:11.183Z,8.76
2022-11-16T21:03:11.200Z,8.78
2022-11-16T21:04:11.957Z,8.57
2022-11-16T21:05:11.956Z,8.69
2022-11-16T21:06:11.957Z,8.63
2022-11-16T21:07:11.455Z,8.66
2022-11-16T21:08:11.462Z,8.51
2022-11-16T21:09:11.504Z,8.55
2022-11-16T21:10:12.455Z,8.54
2022-11-16T21:11:12.456Z,8.47
2022-11-16T21:12:11.603Z,8.53
2022-11-16T21:13:11.658Z,8.44
2022-11-16T21:14:11.719Z,8.47
2022-11-16T21:15:11.742Z,8.50
2022-11-16T21:16:11.795Z,8.48
2022-11-16T21:17:11.848Z,8.44
2022-11-16T21:18:11.870Z,8.50
2022-11-16T21:19:11.978Z,8.53
2022-11-16T21:20:27.056Z,8.53
2022-11-16T21:21:12.022Z,8.53
2022-11-16T21:22:12.071Z,8.47
2022-11-16T21:23:12.099Z,8.54
2022-11-16T21:24:12.176Z,8.51
